sensor_id;sensor_type;location;lat;lon;timestamp;pressure;altitude;pressure_sealevel;temperature;humidity
78841;BME280;68191;47.190;27.558;2023-02-26T00:01:16;98605.80;;;22.07;43.40
78841;BME280;68191;47.190;27.558;2023-02-26T00:03:49;98606.52;;;22.05;43.39
78841;BME280;68191;47.190;27.558;2023-02-26T00:06:19;98599.56;;;22.05;43.38
78841;BME280;68191;47.190;27.558;2023-02-26T00:08:50;98598.21;;;22.04;43.42
78841;BME280;68191;47.190;27.558;2023-02-26T00:11:21;98599.59;;;22.02;43.47
78841;BME280;68191;47.190;27.558;2023-02-26T00:13:53;98600.03;;;22.02;43.34
78841;BME280;68191;47.190;27.558;2023-02-26T00:16:28;98593.05;;;22.01;43.46
78841;BME280;68191;47.190;27.558;2023-02-26T00:19:00;98594.27;;;22.00;43.43
78841;BME280;68191;47.190;27.558;2023-02-26T00:21:32;98592.91;;;21.99;43.49
78841;BME280;68191;47.190;27.558;2023-02-26T00:24:04;98591.19;;;21.99;43.62
78841;BME280;68191;47.190;27.558;2023-02-26T00:26:34;98589.33;;;21.98;43.53
78841;BME280;68191;47.190;27.558;2023-02-26T00:29:06;98594.65;;;21.97;43.61
78841;BME280;68191;47.190;27.558;2023-02-26T00:31:37;98590.46;;;21.95;43.63
78841;BME280;68191;47.190;27.558;2023-02-26T00:34:13;98590.20;;;21.95;43.53
78841;BME280;68191;47.190;27.558;2023-02-26T00:36:48;98596.33;;;21.94;43.55
78841;BME280;68191;47.190;27.558;2023-02-26T00:39:34;98591.13;;;21.93;43.59
78841;BME280;68191;47.190;27.558;2023-02-26T00:42:10;98604.65;;;21.92;43.62
78841;BME280;68191;47.190;27.558;2023-02-26T00:44:42;98612.60;;;21.92;43.58
78841;BME280;68191;47.190;27.558;2023-02-26T00:47:19;98617.35;;;21.91;43.56
78841;BME280;68191;47.190;27.558;2023-02-26T00:50:04;98628.77;;;21.90;43.64
78841;BME280;68191;47.190;27.558;2023-02-26T00:52:40;98639.26;;;21.90;43.65
78841;BME280;68191;47.190;27.558;2023-02-26T00:55:13;98642.67;;;21.88;43.65
78841;BME280;68191;47.190;27.558;2023-02-26T00:57:43;98643.95;;;21.88;43.70
78841;BME280;68191;47.190;27.558;2023-02-26T01:00:16;98645.79;;;21.88;43.73
78841;BME280;68191;47.190;27.558;2023-02-26T01:02:48;98644.73;;;21.87;43.75
78841;BME280;68191;47.190;27.558;2023-02-26T01:05:20;98641.52;;;21.86;43.68
78841;BME280;68191;47.190;27.558;2023-02-26T01:07:53;98639.44;;;21.85;43.84
78841;BME280;68191;47.190;27.558;2023-02-26T01:10:29;98636.43;;;21.84;43.79
78841;BME280;68191;47.190;27.558;2023-02-26T01:13:01;98639.80;;;21.83;43.75
78841;BME280;68191;47.190;27.558;2023-02-26T01:15:32;98643.61;;;21.83;43.69
78841;BME280;68191;47.190;27.558;2023-02-26T01:18:06;98641.48;;;21.82;43.79
78841;BME280;68191;47.190;27.558;2023-02-26T01:20:43;98640.64;;;21.82;43.79
78841;BME280;68191;47.190;27.558;2023-02-26T01:23:16;98639.43;;;21.81;43.77
78841;BME280;68191;47.190;27.558;2023-02-26T01:25:50;98637.80;;;21.81;43.78
78841;BME280;68191;47.190;27.558;2023-02-26T01:28:24;98639.11;;;21.81;43.84
78841;BME280;68191;47.190;27.558;2023-02-26T01:30:57;98642.19;;;21.81;43.89
78841;BME280;68191;47.190;27.558;2023-02-26T01:33:31;98643.46;;;21.81;43.92
78841;BME280;68191;47.190;27.558;2023-02-26T01:36:09;98648.52;;;21.80;43.84
78841;BME280;68191;47.190;27.558;2023-02-26T01:38:42;98652.14;;;21.80;43.82
78841;BME280;68191;47.190;27.558;2023-02-26T01:41:26;98650.95;;;21.78;43.88
78841;BME280;68191;47.190;27.558;2023-02-26T01:44:12;98646.43;;;21.78;43.98
78841;BME280;68191;47.190;27.558;2023-02-26T01:46:57;98645.75;;;21.78;44.01
78841;BME280;68191;47.190;27.558;2023-02-26T01:49:33;98651.84;;;21.76;43.93
78841;BME280;68191;47.190;27.558;2023-02-26T01:52:04;98640.71;;;21.76;43.96
78841;BME280;68191;47.190;27.558;2023-02-26T01:54:36;98637.66;;;21.76;44.04
78841;BME280;68191;47.190;27.558;2023-02-26T01:57:08;98636.73;;;21.76;43.88
78841;BME280;68191;47.190;27.558;2023-02-26T01:59:42;98633.50;;;21.76;44.00
78841;BME280;68191;47.190;27.558;2023-02-26T02:02:15;98636.51;;;21.76;44.06
78841;BME280;68191;47.190;27.558;2023-02-26T02:04:47;98643.35;;;21.77;44.02
78841;BME280;68191;47.190;27.558;2023-02-26T02:07:18;98639.71;;;21.77;44.13
78841;BME280;68191;47.190;27.558;2023-02-26T02:09:48;98640.36;;;21.78;44.09
78841;BME280;68191;47.190;27.558;2023-02-26T02:12:28;98641.20;;;21.78;44.00
78841;BME280;68191;47.190;27.558;2023-02-26T02:15:11;98637.57;;;21.79;44.01
78841;BME280;68191;47.190;27.558;2023-02-26T02:17:50;98642.92;;;21.79;44.01
78841;BME280;68191;47.190;27.558;2023-02-26T02:23:51;98658.67;;;21.79;43.97
78841;BME280;68191;47.190;27.558;2023-02-26T02:26:47;98658.44;;;21.80;44.07
78841;BME280;68191;47.190;27.558;2023-02-26T02:32:23;98669.52;;;21.80;44.07
78841;BME280;68191;47.190;27.558;2023-02-26T02:35:02;98683.21;;;21.80;43.95
78841;BME280;68191;47.190;27.558;2023-02-26T02:37:37;98688.89;;;21.81;43.97
78841;BME280;68191;47.190;27.558;2023-02-26T02:40:14;98699.06;;;21.82;44.05
78841;BME280;68191;47.190;27.558;2023-02-26T02:42:53;98705.41;;;21.83;44.09
78841;BME280;68191;47.190;27.558;2023-02-26T02:45:28;98703.08;;;21.83;44.00
78841;BME280;68191;47.190;27.558;2023-02-26T02:48:02;98703.41;;;21.83;44.08
78841;BME280;68191;47.190;27.558;2023-02-26T02:50:38;98708.61;;;21.84;43.99
78841;BME280;68191;47.190;27.558;2023-02-26T02:53:15;98714.15;;;21.84;44.09
78841;BME280;68191;47.190;27.558;2023-02-26T02:55:51;98718.90;;;21.85;44.13
78841;BME280;68191;47.190;27.558;2023-02-26T02:58:27;98729.40;;;21.86;44.09
78841;BME280;68191;47.190;27.558;2023-02-26T03:01:03;98728.66;;;21.86;44.04
78841;BME280;68191;47.190;27.558;2023-02-26T03:03:41;98726.46;;;21.86;43.99
78841;BME280;68191;47.190;27.558;2023-02-26T03:06:14;98723.98;;;21.86;44.00
78841;BME280;68191;47.190;27.558;2023-02-26T03:08:48;98728.96;;;21.87;44.09
78841;BME280;68191;47.190;27.558;2023-02-26T03:11:19;98722.47;;;21.87;44.12
78841;BME280;68191;47.190;27.558;2023-02-26T03:13:51;98717.40;;;21.87;44.10
78841;BME280;68191;47.190;27.558;2023-02-26T03:16:38;98725.42;;;21.88;44.13
78841;BME280;68191;47.190;27.558;2023-02-26T03:19:17;98732.31;;;21.87;44.09
78841;BME280;68191;47.190;27.558;2023-02-26T03:21:55;98728.98;;;21.88;44.14
78841;BME280;68191;47.190;27.558;2023-02-26T03:24:34;98726.32;;;21.88;44.06
78841;BME280;68191;47.190;27.558;2023-02-26T03:27:10;98728.50;;;21.89;43.98
78841;BME280;68191;47.190;27.558;2023-02-26T03:29:48;98728.80;;;21.90;44.08
78841;BME280;68191;47.190;27.558;2023-02-26T03:32:26;98735.98;;;21.90;44.12
78841;BME280;68191;47.190;27.558;2023-02-26T03:35:01;98736.46;;;21.90;44.02
78841;BME280;68191;47.190;27.558;2023-02-26T03:37:36;98745.77;;;21.91;44.05
78841;BME280;68191;47.190;27.558;2023-02-26T03:40:11;98749.86;;;21.92;44.05
78841;BME280;68191;47.190;27.558;2023-02-26T03:42:48;98750.36;;;21.92;44.11
78841;BME280;68191;47.190;27.558;2023-02-26T03:45:23;98755.56;;;21.92;43.93
78841;BME280;68191;47.190;27.558;2023-02-26T03:47:57;98759.25;;;21.93;43.89
78841;BME280;68191;47.190;27.558;2023-02-26T03:50:32;98762.98;;;21.93;43.93
78841;BME280;68191;47.190;27.558;2023-02-26T03:53:08;98766.20;;;21.93;44.10
78841;BME280;68191;47.190;27.558;2023-02-26T03:55:48;98763.73;;;21.94;44.09
78841;BME280;68191;47.190;27.558;2023-02-26T03:58:20;98765.27;;;21.95;44.07
78841;BME280;68191;47.190;27.558;2023-02-26T04:00:53;98773.15;;;21.96;44.05
78841;BME280;68191;47.190;27.558;2023-02-26T04:03:31;98769.71;;;21.96;44.02
78841;BME280;68191;47.190;27.558;2023-02-26T04:06:04;98774.65;;;21.97;44.01
78841;BME280;68191;47.190;27.558;2023-02-26T04:08:35;98774.28;;;21.97;44.12
78841;BME280;68191;47.190;27.558;2023-02-26T04:11:08;98777.69;;;21.97;44.06
78841;BME280;68191;47.190;27.558;2023-02-26T04:13:40;98778.13;;;21.98;44.01
78841;BME280;68191;47.190;27.558;2023-02-26T04:16:10;98780.02;;;21.99;43.99
78841;BME280;68191;47.190;27.558;2023-02-26T04:18:41;98777.35;;;21.98;44.13
78841;BME280;68191;47.190;27.558;2023-02-26T04:21:13;98782.34;;;21.99;44.16
78841;BME280;68191;47.190;27.558;2023-02-26T04:23:44;98787.41;;;22.00;44.08
78841;BME280;68191;47.190;27.558;2023-02-26T04:26:15;98787.41;;;22.00;44.11
78841;BME280;68191;47.190;27.558;2023-02-26T04:28:45;98786.13;;;22.00;43.99
78841;BME280;68191;47.190;27.558;2023-02-26T04:31:15;98787.04;;;22.00;43.99
78841;BME280;68191;47.190;27.558;2023-02-26T04:33:46;98789.81;;;22.01;43.99
78841;BME280;68191;47.190;27.558;2023-02-26T04:36:16;98797.85;;;22.02;44.09
78841;BME280;68191;47.190;27.558;2023-02-26T04:38:46;98800.67;;;22.02;44.08
78841;BME280;68191;47.190;27.558;2023-02-26T04:41:17;98800.67;;;22.02;44.04
78841;BME280;68191;47.190;27.558;2023-02-26T04:43:47;98799.33;;;22.03;44.01
78841;BME280;68191;47.190;27.558;2023-02-26T04:46:18;98795.86;;;22.04;44.11
78841;BME280;68191;47.190;27.558;2023-02-26T04:48:48;98796.34;;;22.05;44.09
78841;BME280;68191;47.190;27.558;2023-02-26T04:51:18;98800.42;;;22.05;43.96
78841;BME280;68191;47.190;27.558;2023-02-26T04:53:49;98804.40;;;22.07;43.99
78841;BME280;68191;47.190;27.558;2023-02-26T04:56:19;98807.95;;;22.06;44.02
78841;BME280;68191;47.190;27.558;2023-02-26T04:58:50;98812.47;;;22.05;44.03
78841;BME280;68191;47.190;27.558;2023-02-26T05:01:20;98810.37;;;22.06;44.09
78841;BME280;68191;47.190;27.558;2023-02-26T05:03:50;98805.27;;;22.07;44.12
78841;BME280;68191;47.190;27.558;2023-02-26T05:06:21;98809.48;;;22.08;44.06
78841;BME280;68191;47.190;27.558;2023-02-26T05:08:51;98808.51;;;22.09;43.98
78841;BME280;68191;47.190;27.558;2023-02-26T05:11:21;98813.09;;;22.10;44.09
78841;BME280;68191;47.190;27.558;2023-02-26T05:13:52;98817.21;;;22.10;44.00
78841;BME280;68191;47.190;27.558;2023-02-26T05:16:22;98818.09;;;22.10;44.09
78841;BME280;68191;47.190;27.558;2023-02-26T05:18:53;98818.63;;;22.10;44.06
78841;BME280;68191;47.190;27.558;2023-02-26T05:21:23;98821.50;;;22.12;44.01
78841;BME280;68191;47.190;27.558;2023-02-26T05:23:54;98829.20;;;22.12;43.94
78841;BME280;68191;47.190;27.558;2023-02-26T05:26:24;98840.13;;;22.12;43.91
78841;BME280;68191;47.190;27.558;2023-02-26T05:28:55;98840.40;;;22.13;43.96
78841;BME280;68191;47.190;27.558;2023-02-26T05:31:25;98850.00;;;22.15;43.99
78841;BME280;68191;47.190;27.558;2023-02-26T05:33:56;98853.20;;;22.15;43.96
78841;BME280;68191;47.190;27.558;2023-02-26T05:36:26;98863.26;;;22.15;43.97
78841;BME280;68191;47.190;27.558;2023-02-26T05:38:56;98867.60;;;22.15;43.98
78841;BME280;68191;47.190;27.558;2023-02-26T05:41:27;98867.73;;;22.15;43.99
78841;BME280;68191;47.190;27.558;2023-02-26T05:43:57;98871.62;;;22.16;43.98
78841;BME280;68191;47.190;27.558;2023-02-26T05:46:27;98879.85;;;22.16;44.01
78841;BME280;68191;47.190;27.558;2023-02-26T05:48:58;98885.53;;;22.17;43.89
78841;BME280;68191;47.190;27.558;2023-02-26T05:51:28;98890.52;;;22.17;43.97
78841;BME280;68191;47.190;27.558;2023-02-26T05:53:58;98895.40;;;22.19;43.99
78841;BME280;68191;47.190;27.558;2023-02-26T05:56:29;98896.45;;;22.19;43.96
78841;BME280;68191;47.190;27.558;2023-02-26T05:58:59;98898.34;;;22.20;44.00
78841;BME280;68191;47.190;27.558;2023-02-26T06:01:29;98902.95;;;22.21;44.01
78841;BME280;68191;47.190;27.558;2023-02-26T06:04:00;98900.37;;;22.21;43.98
78841;BME280;68191;47.190;27.558;2023-02-26T06:06:30;98908.69;;;22.23;44.01
78841;BME280;68191;47.190;27.558;2023-02-26T06:09:00;98910.77;;;22.24;44.06
78841;BME280;68191;47.190;27.558;2023-02-26T06:11:31;98907.98;;;22.25;43.99
78841;BME280;68191;47.190;27.558;2023-02-26T06:14:02;98907.30;;;22.26;43.86
78841;BME280;68191;47.190;27.558;2023-02-26T06:16:32;98908.69;;;22.26;43.93
78841;BME280;68191;47.190;27.558;2023-02-26T06:19:03;98913.39;;;22.26;43.79
78841;BME280;68191;47.190;27.558;2023-02-26T06:21:34;98914.92;;;22.27;43.91
78841;BME280;68191;47.190;27.558;2023-02-26T06:24:05;98919.70;;;22.28;43.94
78841;BME280;68191;47.190;27.558;2023-02-26T06:26:35;98926.45;;;22.29;43.88
78841;BME280;68191;47.190;27.558;2023-02-26T06:29:06;98923.13;;;22.30;43.93
78841;BME280;68191;47.190;27.558;2023-02-26T06:31:37;98930.45;;;22.30;43.86
78841;BME280;68191;47.190;27.558;2023-02-26T06:34:07;98933.52;;;22.30;43.84
78841;BME280;68191;47.190;27.558;2023-02-26T06:36:38;98939.02;;;22.31;43.82
78841;BME280;68191;47.190;27.558;2023-02-26T06:39:08;98941.43;;;22.32;43.84
78841;BME280;68191;47.190;27.558;2023-02-26T06:41:40;98947.11;;;22.33;43.87
78841;BME280;68191;47.190;27.558;2023-02-26T06:44:10;98947.23;;;22.33;43.82
78841;BME280;68191;47.190;27.558;2023-02-26T06:46:40;98949.83;;;22.34;43.83
78841;BME280;68191;47.190;27.558;2023-02-26T06:49:11;98945.74;;;22.35;43.87
78841;BME280;68191;47.190;27.558;2023-02-26T06:51:42;98945.65;;;22.36;43.76
78841;BME280;68191;47.190;27.558;2023-02-26T06:54:12;98950.22;;;22.37;43.74
78841;BME280;68191;47.190;27.558;2023-02-26T06:56:43;98953.92;;;22.38;43.84
78841;BME280;68191;47.190;27.558;2023-02-26T06:59:13;98959.91;;;22.39;43.81
78841;BME280;68191;47.190;27.558;2023-02-26T07:01:43;98962.61;;;22.39;43.81
78841;BME280;68191;47.190;27.558;2023-02-26T07:04:14;98964.55;;;22.40;43.88
78841;BME280;68191;47.190;27.558;2023-02-26T07:06:44;98967.64;;;22.41;43.96
78841;BME280;68191;47.190;27.558;2023-02-26T07:09:15;98960.51;;;22.42;44.09
78841;BME280;68191;47.190;27.558;2023-02-26T07:11:47;98959.70;;;22.43;44.11
78841;BME280;68191;47.190;27.558;2023-02-26T07:14:17;98960.77;;;22.43;44.12
78841;BME280;68191;47.190;27.558;2023-02-26T07:16:48;98959.08;;;22.44;44.14
78841;BME280;68191;47.190;27.558;2023-02-26T07:19:18;98959.54;;;22.45;44.20
78841;BME280;68191;47.190;27.558;2023-02-26T07:21:49;98964.30;;;22.45;44.22
78841;BME280;68191;47.190;27.558;2023-02-26T07:24:22;98966.04;;;22.47;44.40
78841;BME280;68191;47.190;27.558;2023-02-26T07:26:53;98968.57;;;22.48;44.59
78841;BME280;68191;47.190;27.558;2023-02-26T07:29:23;98971.46;;;22.50;45.67
78841;BME280;68191;47.190;27.558;2023-02-26T07:31:54;98974.54;;;22.52;46.27
78841;BME280;68191;47.190;27.558;2023-02-26T07:34:24;98972.34;;;22.54;46.50
78841;BME280;68191;47.190;27.558;2023-02-26T07:36:55;98978.30;;;22.55;46.75
78841;BME280;68191;47.190;27.558;2023-02-26T07:39:27;98986.08;;;22.56;46.85
78841;BME280;68191;47.190;27.558;2023-02-26T07:41:57;98988.08;;;22.56;46.96
78841;BME280;68191;47.190;27.558;2023-02-26T07:44:28;98990.22;;;22.58;46.87
78841;BME280;68191;47.190;27.558;2023-02-26T07:46:58;98989.79;;;22.59;47.09
78841;BME280;68191;47.190;27.558;2023-02-26T07:49:29;98991.64;;;22.60;47.00
78841;BME280;68191;47.190;27.558;2023-02-26T07:52:01;98993.13;;;22.61;46.95
78841;BME280;68191;47.190;27.558;2023-02-26T07:54:32;98996.10;;;22.62;47.17
78841;BME280;68191;47.190;27.558;2023-02-26T07:57:02;98998.24;;;22.62;47.08
78841;BME280;68191;47.190;27.558;2023-02-26T07:59:33;98997.70;;;22.61;47.03
78841;BME280;68191;47.190;27.558;2023-02-26T08:02:04;98998.16;;;22.60;47.16
78841;BME280;68191;47.190;27.558;2023-02-26T08:04:34;99006.15;;;22.57;47.11
78841;BME280;68191;47.190;27.558;2023-02-26T08:07:04;99008.94;;;22.56;47.14
78841;BME280;68191;47.190;27.558;2023-02-26T08:09:35;99010.63;;;22.56;47.30
78841;BME280;68191;47.190;27.558;2023-02-26T08:12:06;99006.81;;;22.56;47.38
78841;BME280;68191;47.190;27.558;2023-02-26T08:14:36;99003.59;;;22.58;47.53
78841;BME280;68191;47.190;27.558;2023-02-26T08:17:10;99001.91;;;22.60;47.51
78841;BME280;68191;47.190;27.558;2023-02-26T08:19:41;99001.14;;;22.62;47.49
78841;BME280;68191;47.190;27.558;2023-02-26T08:22:12;99001.76;;;22.63;47.58
78841;BME280;68191;47.190;27.558;2023-02-26T08:24:43;99003.45;;;22.64;47.55
78841;BME280;68191;47.190;27.558;2023-02-26T08:27:13;99005.09;;;22.66;47.56
78841;BME280;68191;47.190;27.558;2023-02-26T08:29:44;99008.42;;;22.65;47.66
78841;BME280;68191;47.190;27.558;2023-02-26T08:32:19;99005.83;;;22.66;47.54
78841;BME280;68191;47.190;27.558;2023-02-26T08:34:50;99005.16;;;22.67;47.64
78841;BME280;68191;47.190;27.558;2023-02-26T08:37:21;99006.23;;;22.69;47.63
78841;BME280;68191;47.190;27.558;2023-02-26T08:39:52;99011.27;;;22.71;47.62
78841;BME280;68191;47.190;27.558;2023-02-26T08:42:22;99014.67;;;22.71;47.53
78841;BME280;68191;47.190;27.558;2023-02-26T08:44:52;99011.13;;;22.70;47.66
78841;BME280;68191;47.190;27.558;2023-02-26T08:47:23;99012.75;;;22.70;47.60
78841;BME280;68191;47.190;27.558;2023-02-26T08:49:53;99016.85;;;22.69;47.60
78841;BME280;68191;47.190;27.558;2023-02-26T08:52:24;99022.32;;;22.68;47.55
78841;BME280;68191;47.190;27.558;2023-02-26T08:54:55;99024.45;;;22.68;47.58
78841;BME280;68191;47.190;27.558;2023-02-26T08:57:25;99017.38;;;22.69;47.63
78841;BME280;68191;47.190;27.558;2023-02-26T08:59:56;99023.52;;;22.70;47.71
78841;BME280;68191;47.190;27.558;2023-02-26T09:02:26;99020.80;;;22.72;48.13
78841;BME280;68191;47.190;27.558;2023-02-26T09:04:56;99022.12;;;22.73;48.24
78841;BME280;68191;47.190;27.558;2023-02-26T09:07:27;99018.61;;;22.74;48.42
78841;BME280;68191;47.190;27.558;2023-02-26T09:09:57;99017.75;;;22.74;48.57
78841;BME280;68191;47.190;27.558;2023-02-26T09:12:28;99020.77;;;22.74;48.92
78841;BME280;68191;47.190;27.558;2023-02-26T09:14:58;99029.49;;;22.75;49.19
78841;BME280;68191;47.190;27.558;2023-02-26T09:17:28;99033.95;;;22.76;49.41
78841;BME280;68191;47.190;27.558;2023-02-26T09:19:59;99038.86;;;22.77;49.49
78841;BME280;68191;47.190;27.558;2023-02-26T09:22:29;99042.65;;;22.77;49.61
78841;BME280;68191;47.190;27.558;2023-02-26T09:25:00;99045.42;;;22.76;49.89
78841;BME280;68191;47.190;27.558;2023-02-26T09:27:30;99049.61;;;22.78;50.06
78841;BME280;68191;47.190;27.558;2023-02-26T09:30:01;99051.42;;;22.77;50.27
78841;BME280;68191;47.190;27.558;2023-02-26T09:32:31;99047.48;;;22.77;50.53
78841;BME280;68191;47.190;27.558;2023-02-26T09:35:06;99046.66;;;22.77;50.77
78841;BME280;68191;47.190;27.558;2023-02-26T09:37:37;99046.55;;;22.76;50.84
78841;BME280;68191;47.190;27.558;2023-02-26T09:40:10;99054.26;;;22.76;50.72
78841;BME280;68191;47.190;27.558;2023-02-26T09:43:02;99057.23;;;22.77;50.76
78841;BME280;68191;47.190;27.558;2023-02-26T09:45:37;99062.20;;;22.78;50.71
78841;BME280;68191;47.190;27.558;2023-02-26T09:48:14;99060.82;;;22.79;50.57
78841;BME280;68191;47.190;27.558;2023-02-26T09:50:48;99065.08;;;22.79;50.54
78841;BME280;68191;47.190;27.558;2023-02-26T09:53:22;99069.34;;;22.80;50.43
78841;BME280;68191;47.190;27.558;2023-02-26T09:55:57;99072.08;;;22.80;50.46
78841;BME280;68191;47.190;27.558;2023-02-26T09:58:33;99073.38;;;22.79;50.45
78841;BME280;68191;47.190;27.558;2023-02-26T10:01:11;99073.27;;;22.78;50.53
78841;BME280;68191;47.190;27.558;2023-02-26T10:03:56;99069.77;;;22.78;50.52
78841;BME280;68191;47.190;27.558;2023-02-26T10:06:31;99062.17;;;22.78;50.40
78841;BME280;68191;47.190;27.558;2023-02-26T10:09:27;99066.09;;;22.78;50.34
78841;BME280;68191;47.190;27.558;2023-02-26T10:12:04;99066.11;;;22.78;50.34
78841;BME280;68191;47.190;27.558;2023-02-26T10:14:41;99067.34;;;22.78;50.33
78841;BME280;68191;47.190;27.558;2023-02-26T10:17:29;99073.31;;;22.78;50.35
78841;BME280;68191;47.190;27.558;2023-02-26T10:20:05;99078.48;;;22.77;50.16
78841;BME280;68191;47.190;27.558;2023-02-26T10:22:45;99080.12;;;22.77;50.16
78841;BME280;68191;47.190;27.558;2023-02-26T10:25:23;99084.58;;;22.77;50.23
78841;BME280;68191;47.190;27.558;2023-02-26T10:28:00;99084.66;;;22.78;50.14
78841;BME280;68191;47.190;27.558;2023-02-26T10:30:36;99088.08;;;22.78;50.01
78841;BME280;68191;47.190;27.558;2023-02-26T10:33:16;99085.00;;;22.78;50.01
78841;BME280;68191;47.190;27.558;2023-02-26T10:35:55;99087.11;;;22.77;50.11
78841;BME280;68191;47.190;27.558;2023-02-26T10:38:30;99093.86;;;22.76;50.15
78841;BME280;68191;47.190;27.558;2023-02-26T10:41:03;99096.80;;;22.76;50.10
78841;BME280;68191;47.190;27.558;2023-02-26T10:43:39;99096.44;;;22.74;48.38
78841;BME280;68191;47.190;27.558;2023-02-26T10:46:23;99095.73;;;22.43;45.83
78841;BME280;68191;47.190;27.558;2023-02-26T10:49:15;99098.42;;;21.96;44.21
78841;BME280;68191;47.190;27.558;2023-02-26T10:51:50;99102.20;;;21.65;45.06
78841;BME280;68191;47.190;27.558;2023-02-26T10:54:28;99099.63;;;21.62;45.19
78841;BME280;68191;47.190;27.558;2023-02-26T10:57:00;99096.02;;;21.64;44.95
78841;BME280;68191;47.190;27.558;2023-02-26T10:59:32;99099.18;;;21.69;44.77
78841;BME280;68191;47.190;27.558;2023-02-26T11:02:02;99102.80;;;21.74;44.93
78841;BME280;68191;47.190;27.558;2023-02-26T11:04:33;99106.85;;;21.78;44.82
78841;BME280;68191;47.190;27.558;2023-02-26T11:07:05;99110.60;;;21.82;44.87
78841;BME280;68191;47.190;27.558;2023-02-26T11:09:41;99105.05;;;21.86;44.67
78841;BME280;68191;47.190;27.558;2023-02-26T11:12:15;99104.83;;;21.90;44.67
78841;BME280;68191;47.190;27.558;2023-02-26T11:14:48;99102.72;;;21.93;44.52
78841;BME280;68191;47.190;27.558;2023-02-26T11:17:20;99107.90;;;21.95;44.17
78841;BME280;68191;47.190;27.558;2023-02-26T11:19:54;99106.61;;;21.97;44.17
78841;BME280;68191;47.190;27.558;2023-02-26T11:22:28;99109.74;;;22.00;44.19
78841;BME280;68191;47.190;27.558;2023-02-26T11:25:00;99100.41;;;22.04;44.13
78841;BME280;68191;47.190;27.558;2023-02-26T11:27:34;99102.11;;;22.07;44.19
78841;BME280;68191;47.190;27.558;2023-02-26T11:30:14;99098.35;;;22.08;44.37
78841;BME280;68191;47.190;27.558;2023-02-26T11:32:50;99108.66;;;22.10;44.49
78841;BME280;68191;47.190;27.558;2023-02-26T11:35:25;99109.35;;;22.12;44.49
78841;BME280;68191;47.190;27.558;2023-02-26T11:37:58;99106.92;;;22.14;44.56
78841;BME280;68191;47.190;27.558;2023-02-26T11:40:36;99112.48;;;22.16;44.68
78841;BME280;68191;47.190;27.558;2023-02-26T11:43:18;99111.06;;;22.18;44.69
78841;BME280;68191;47.190;27.558;2023-02-26T11:45:58;99117.90;;;22.18;44.64
78841;BME280;68191;47.190;27.558;2023-02-26T11:48:37;99123.56;;;22.19;44.90
78841;BME280;68191;47.190;27.558;2023-02-26T11:51:10;99122.98;;;22.19;44.71
78841;BME280;68191;47.190;27.558;2023-02-26T11:53:49;99117.37;;;22.20;44.96
78841;BME280;68191;47.190;27.558;2023-02-26T11:56:28;99105.66;;;22.20;44.97
78841;BME280;68191;47.190;27.558;2023-02-26T11:59:04;99098.73;;;22.21;44.99
78841;BME280;68191;47.190;27.558;2023-02-26T12:01:37;99097.55;;;22.22;45.08
78841;BME280;68191;47.190;27.558;2023-02-26T12:04:09;99104.94;;;22.22;45.05
78841;BME280;68191;47.190;27.558;2023-02-26T12:06:40;99104.20;;;22.22;45.30
78841;BME280;68191;47.190;27.558;2023-02-26T12:09:12;99119.52;;;22.22;45.14
78841;BME280;68191;47.190;27.558;2023-02-26T12:12:19;99126.21;;;22.21;45.20
78841;BME280;68191;47.190;27.558;2023-02-26T12:15:05;99133.45;;;22.21;45.37
78841;BME280;68191;47.190;27.558;2023-02-26T12:17:53;99130.05;;;22.20;45.38
78841;BME280;68191;47.190;27.558;2023-02-26T12:20:31;99135.02;;;22.19;45.42
78841;BME280;68191;47.190;27.558;2023-02-26T12:23:20;99138.83;;;22.19;45.53
78841;BME280;68191;47.190;27.558;2023-02-26T12:26:12;99126.27;;;22.19;45.49
78841;BME280;68191;47.190;27.558;2023-02-26T12:32:26;99138.85;;;22.19;45.58
78841;BME280;68191;47.190;27.558;2023-02-26T12:35:30;99142.45;;;22.19;45.48
78841;BME280;68191;47.190;27.558;2023-02-26T12:38:12;99140.36;;;22.18;45.62
78841;BME280;68191;47.190;27.558;2023-02-26T12:41:12;99144.34;;;22.18;45.67
78841;BME280;68191;47.190;27.558;2023-02-26T12:43:48;99149.96;;;22.17;45.73
78841;BME280;68191;47.190;27.558;2023-02-26T12:46:30;99153.27;;;22.17;45.71
78841;BME280;68191;47.190;27.558;2023-02-26T12:49:27;99158.18;;;22.16;45.73
78841;BME280;68191;47.190;27.558;2023-02-26T12:52:24;99161.33;;;22.15;45.68
78841;BME280;68191;47.190;27.558;2023-02-26T12:55:16;99166.60;;;22.15;45.78
78841;BME280;68191;47.190;27.558;2023-02-26T12:58:03;99168.25;;;22.14;45.76
78841;BME280;68191;47.190;27.558;2023-02-26T13:00:51;99168.24;;;22.14;45.87
78841;BME280;68191;47.190;27.558;2023-02-26T13:03:50;99173.73;;;22.14;45.98
78841;BME280;68191;47.190;27.558;2023-02-26T13:09:35;99185.00;;;22.11;46.02
78841;BME280;68191;47.190;27.558;2023-02-26T13:12:22;99192.30;;;22.09;46.04
78841;BME280;68191;47.190;27.558;2023-02-26T13:15:03;99196.04;;;22.08;45.93
78841;BME280;68191;47.190;27.558;2023-02-26T13:17:42;99201.21;;;22.07;45.94
78841;BME280;68191;47.190;27.558;2023-02-26T13:20:18;99210.30;;;22.06;45.97
78841;BME280;68191;47.190;27.558;2023-02-26T13:22:53;99209.05;;;22.04;46.00
78841;BME280;68191;47.190;27.558;2023-02-26T13:25:29;99210.69;;;22.03;46.10
78841;BME280;68191;47.190;27.558;2023-02-26T13:28:04;99212.59;;;22.02;46.16
78841;BME280;68191;47.190;27.558;2023-02-26T13:30:44;99215.05;;;22.01;46.17
78841;BME280;68191;47.190;27.558;2023-02-26T13:33:18;99215.70;;;22.00;46.49
78841;BME280;68191;47.190;27.558;2023-02-26T13:35:51;99217.55;;;21.99;46.54
78841;BME280;68191;47.190;27.558;2023-02-26T13:38:29;99216.31;;;21.99;46.56
78841;BME280;68191;47.190;27.558;2023-02-26T13:41:14;99220.70;;;21.98;46.72